Portland, Tennessee
Current Conditions -  °F | °C
As of 9:55 AM on Friday 19 Dec 2014 (Local Time) from KM91 Reporting Station
Overcast Overcast  
Wind Chill: 30°   Ceiling: 4200
Heat Index: 34°   Visibility: 10mi
Dew Point: 30°   Wind: 5mph
Humidity: 87%   Direction: 50°NE
Pressure: 30.29"   Gusts: NA
Location:  36.58°N, 86.51°W
Report Text: KM91 191555Z AUTO 05004KT 10SM OVC042 01/M01 A3029 RMK
Loading
Personal Weather Stations






























Interactive Weather Map New forecast layout! Learn more

10-Day Weather Forecast

Advertisements
Track Severe Weather on mobile